createdAt,value
2023-10-29T00:01:05.595Z,100551.06
2023-10-29T00:03:35.994Z,100576.00
2023-10-29T00:06:04.269Z,100578.69
2023-10-29T00:08:32.183Z,100581.25
2023-10-29T00:11:00.254Z,100578.56
2023-10-29T00:13:28.180Z,100576.72
2023-10-29T00:15:56.130Z,100579.44
2023-10-29T00:18:24.053Z,100587.50
2023-10-29T00:20:53.691Z,100575.03
2023-10-29T00:23:21.708Z,100575.88
2023-10-29T00:25:49.684Z,100576.72
2023-10-29T00:28:17.923Z,100579.44
2023-10-29T00:30:45.872Z,100576.72
2023-10-29T00:33:13.895Z,100578.69
2023-10-29T00:35:41.900Z,100577.13
2023-10-29T00:38:11.242Z,100576.16
2023-10-29T00:40:40.201Z,100570.88
2023-10-29T00:43:08.160Z,100580.94
2023-10-29T00:45:38.077Z,100580.22
2023-10-29T00:48:06.793Z,100584.75
2023-10-29T00:50:34.845Z,100583.19
2023-10-29T00:53:03.139Z,100583.19
2023-10-29T00:55:33.280Z,100580.66
2023-10-29T00:58:01.314Z,100580.66
2023-10-29T01:00:29.301Z,100579.94
2023-10-29T01:02:57.366Z,100575.69
2023-10-29T01:05:25.580Z,100579.47
2023-10-29T01:07:54.670Z,100580.34
2023-10-29T01:10:22.632Z,100578.66
2023-10-29T01:12:53.331Z,100583.03
2023-10-29T01:15:21.347Z,100574.94
2023-10-29T01:17:49.363Z,100580.34
2023-10-29T01:20:17.378Z,100579.34
2023-10-29T01:22:45.912Z,100575.69
2023-10-29T01:25:14.260Z,100568.59
2023-10-29T01:27:42.630Z,100573.00
2023-10-29T01:30:13.338Z,100570.31
2023-10-29T01:32:41.570Z,100572.16
2023-10-29T01:35:10.870Z,100569.44
2023-10-29T01:37:38.851Z,100571.28
2023-10-29T01:40:08.202Z,100577.53
2023-10-29T01:42:36.119Z,100573.13
2023-10-29T01:45:05.172Z,100570.56
2023-10-29T01:47:34.560Z,100574.25
2023-10-29T01:50:02.586Z,100570.84
2023-10-29T01:52:30.475Z,100575.38
2023-10-29T01:54:59.697Z,100569.13
2023-10-29T01:57:27.580Z,100581.00
2023-10-29T01:59:55.635Z,100586.41
2023-10-29T02:02:23.672Z,100577.63
2023-10-29T02:04:53.731Z,100579.44
2023-10-29T02:07:21.611Z,100587.66
2023-10-29T02:09:49.842Z,100578.75
2023-10-29T02:12:17.849Z,100576.06
2023-10-29T02:14:45.903Z,100568.84
2023-10-29T02:17:13.959Z,100565.03
2023-10-29T02:19:42.132Z,100566.72
2023-10-29T02:22:11.397Z,100574.78
2023-10-29T02:24:39.308Z,100571.25
2023-10-29T02:27:07.589Z,100566.72
2023-10-29T02:29:35.715Z,100567.56
2023-10-29T02:32:04.115Z,100567.72
2023-10-29T02:34:32.820Z,100569.56
2023-10-29T02:37:00.727Z,100574.06
2023-10-29T02:39:29.983Z,100575.63
2023-10-29T02:41:58.100Z,100575.63
2023-10-29T02:44:26.181Z,100571.25
2023-10-29T02:46:54.202Z,100579.44
2023-10-29T02:49:22.078Z,100578.75
2023-10-29T02:51:50.085Z,100577.88
2023-10-29T02:54:18.012Z,100573.63
2023-10-29T02:56:47.326Z,100575.34
2023-10-29T02:59:15.339Z,100581.69
2023-10-29T03:01:43.306Z,100559.41
2023-10-29T03:04:11.618Z,100572.88
2023-10-29T03:06:40.539Z,100554.16
2023-10-29T03:09:08.518Z,100566.81
2023-10-29T03:11:36.472Z,100573.00
2023-10-29T03:14:05.913Z,100565.78
2023-10-29T03:16:33.832Z,100563.06
2023-10-29T03:19:01.790Z,100572.28
2023-10-29T03:21:29.701Z,100575.69
2023-10-29T03:23:58.369Z,100568.91
2023-10-29T03:26:26.355Z,100569.50
2023-10-29T03:28:54.310Z,100564.94
2023-10-29T03:31:24.840Z,100563.97
2023-10-29T03:33:52.947Z,100561.28
2023-10-29T03:36:20.905Z,100561.13
2023-10-29T03:38:50.075Z,100555.75
2023-10-29T03:41:22.591Z,100542.59
2023-10-29T03:43:50.814Z,100547.97
2023-10-29T03:46:18.791Z,100552.13
2023-10-29T03:48:48.103Z,100547.69
2023-10-29T03:51:17.485Z,100552.13
2023-10-29T03:53:46.030Z,100542.22
2023-10-29T03:56:13.954Z,100543.06
2023-10-29T03:58:41.983Z,100535.97
2023-10-29T04:01:09.946Z,100542.22
2023-10-29T04:03:38.448Z,100539.53
2023-10-29T04:06:11.825Z,100537.81
2023-10-29T04:08:40.280Z,100535.34
2023-10-29T04:11:08.304Z,100531.97
2023-10-29T04:13:36.435Z,100531.09
2023-10-29T04:16:04.775Z,100533.94
2023-10-29T04:18:33.156Z,100536.63
2023-10-29T04:21:03.796Z,100535.78
2023-10-29T04:23:33.092Z,100537.50
2023-10-29T04:26:01.134Z,100536.78
2023-10-29T04:28:29.032Z,100530.28
2023-10-29T04:30:57.360Z,100538.19
2023-10-29T04:33:25.567Z,100529.28
2023-10-29T04:35:53.626Z,100525.59
2023-10-29T04:38:21.556Z,100522.22
2023-10-29T04:40:52.022Z,100531.84
2023-10-29T04:43:20.074Z,100528.16
2023-10-29T04:45:48.075Z,100527.16
2023-10-29T04:48:17.492Z,100528.84
2023-10-29T04:50:45.741Z,100529.00
2023-10-29T04:53:13.750Z,100512.69
2023-10-29T04:55:41.689Z,100530.59
2023-10-29T04:58:11.011Z,100514.69
2023-10-29T05:00:38.900Z,100519.84
2023-10-29T05:03:06.868Z,100521.56
2023-10-29T05:05:34.836Z,100514.47
2023-10-29T05:08:02.883Z,100521.56
2023-10-29T05:10:30.803Z,100522.53
2023-10-29T05:12:58.742Z,100523.47
2023-10-29T05:15:28.745Z,100529.75
2023-10-29T05:17:56.730Z,100524.47
2023-10-29T05:20:24.667Z,100522.66
2023-10-29T05:22:52.663Z,100519.09
2023-10-29T05:25:20.564Z,100528.16
2023-10-29T05:27:52.441Z,100532.56
2023-10-29T05:30:20.569Z,100536.22
2023-10-29T05:32:50.112Z,100529.97
2023-10-29T05:35:18.400Z,100537.94
2023-10-29T05:37:46.339Z,100532.44
2023-10-29T05:40:14.450Z,100533.28
2023-10-29T05:42:42.470Z,100530.59
2023-10-29T05:45:11.494Z,100532.31
2023-10-29T05:47:39.564Z,100530.59
2023-10-29T05:50:10.037Z,100531.47
2023-10-29T05:52:38.116Z,100521.56
2023-10-29T05:55:07.009Z,100529.63
2023-10-29T05:57:34.936Z,100543.78
2023-10-29T06:00:02.992Z,100544.63
2023-10-29T06:02:40.108Z,100542.06
2023-10-29T06:05:09.982Z,100546.47
2023-10-29T06:07:38.410Z,100548.19
2023-10-29T06:10:07.493Z,100546.31
2023-10-29T06:12:36.828Z,100551.56
2023-10-29T06:15:05.662Z,100546.19
2023-10-29T06:17:33.896Z,100550.44
2023-10-29T06:20:01.949Z,100547.88
2023-10-29T06:22:31.295Z,100553.25
2023-10-29T06:24:59.244Z,100553.25
2023-10-29T06:27:27.154Z,100563.03
2023-10-29T06:29:55.199Z,100558.53
2023-10-29T06:32:23.322Z,100557.66
2023-10-29T06:34:51.210Z,100561.22
2023-10-29T06:37:19.148Z,100559.38
2023-10-29T06:39:48.454Z,100552.28
2023-10-29T06:42:16.402Z,100547.88
2023-10-29T06:44:44.365Z,100545.06
2023-10-29T06:47:12.334Z,100558.53
2023-10-29T06:49:40.267Z,100543.25
2023-10-29T06:52:08.497Z,100543.25
2023-10-29T06:54:36.511Z,100540.56
2023-10-29T06:57:06.633Z,100542.22
2023-10-29T06:59:35.175Z,100538.84
2023-10-29T07:02:03.119Z,100533.69
2023-10-29T07:04:31.355Z,100539.69
2023-10-29T07:06:59.332Z,100539.81
2023-10-29T07:09:27.266Z,100536.31
2023-10-29T07:11:56.828Z,100539.81
2023-10-29T07:14:26.757Z,100544.22
2023-10-29T07:16:54.749Z,100538.13
2023-10-29T07:19:22.782Z,100516.69
2023-10-29T07:21:50.884Z,100541.69
2023-10-29T07:24:18.833Z,100537.13
2023-10-29T07:26:46.775Z,100549.59
2023-10-29T07:29:15.265Z,100545.19
2023-10-29T07:31:44.896Z,100548.63
2023-10-29T07:34:12.894Z,100545.06
2023-10-29T07:36:40.819Z,100537.72
2023-10-29T07:39:08.883Z,100537.56
2023-10-29T07:41:36.990Z,100533.19
2023-10-29T07:44:05.184Z,100538.56
2023-10-29T07:46:33.511Z,100540.25
2023-10-29T07:49:04.000Z,100542.13
2023-10-29T07:51:31.926Z,100540.25
2023-10-29T07:54:01.128Z,100544.66
2023-10-29T07:56:29.608Z,100538.31
2023-10-29T07:58:57.548Z,100538.31
2023-10-29T08:01:25.577Z,100532.91
2023-10-29T08:03:57.022Z,100539.97
2023-10-29T08:06:26.474Z,100538.16
2023-10-29T08:08:54.520Z,100525.69
2023-10-29T08:11:22.994Z,100526.69
2023-10-29T08:13:52.008Z,100498.22
2023-10-29T08:16:20.985Z,100524.69
2023-10-29T08:18:48.955Z,100515.78
2023-10-29T08:21:18.618Z,100509.41
2023-10-29T08:23:48.643Z,100513.09
2023-10-29T08:26:17.458Z,100514.09
2023-10-29T08:28:46.111Z,100514.22
2023-10-29T08:31:14.115Z,100512.38
2023-10-29T08:33:42.102Z,100507.16
2023-10-29T08:36:10.661Z,100507.16
2023-10-29T08:38:38.724Z,100505.72
2023-10-29T08:41:15.877Z,100504.59
2023-10-29T08:43:44.006Z,100509.97
2023-10-29T08:46:12.133Z,100514.38
2023-10-29T08:48:41.800Z,100509.97
2023-10-29T08:51:10.130Z,100509.97
2023-10-29T08:53:38.223Z,100504.59
2023-10-29T08:56:06.950Z,100504.59
2023-10-29T08:58:36.440Z,100499.09
2023-10-29T09:01:08.493Z,100504.47
2023-10-29T09:03:36.622Z,100501.34
2023-10-29T09:06:05.567Z,100506.28
2023-10-29T09:08:34.697Z,100508.13
2023-10-29T09:11:02.613Z,100505.28
2023-10-29T09:13:31.232Z,100507.00
2023-10-29T09:16:00.906Z,100499.34
2023-10-29T09:18:30.151Z,100514.22
2023-10-29T09:20:58.303Z,100517.59
2023-10-29T09:23:28.374Z,100518.47
2023-10-29T09:25:56.310Z,100511.41
2023-10-29T09:28:24.275Z,100516.78
2023-10-29T09:30:53.087Z,100518.47
2023-10-29T09:33:22.642Z,100518.34
2023-10-29T09:35:50.662Z,100519.19
2023-10-29T09:38:21.370Z,100516.34
2023-10-29T09:40:55.055Z,100503.75
2023-10-29T09:43:28.297Z,100515.38
2023-10-29T09:45:58.477Z,100510.81
2023-10-29T09:48:28.055Z,100510.72
2023-10-29T09:50:56.432Z,100487.88
2023-10-29T09:53:26.111Z,100516.22
2023-10-29T09:55:56.483Z,100527.72
2023-10-29T09:58:25.966Z,100517.91
2023-10-29T10:00:54.125Z,100508.03
2023-10-29T10:03:22.911Z,100509.16
2023-10-29T10:05:53.460Z,100509.69
2023-10-29T10:08:25.842Z,100512.28
2023-10-29T10:10:54.152Z,100510.56
2023-10-29T10:13:37.795Z,100484.78
2023-10-29T10:16:10.260Z,100507.59
2023-10-29T10:18:55.030Z,100501.25
2023-10-29T10:21:25.744Z,100504.75
2023-10-29T10:23:56.283Z,100509.31
2023-10-29T10:26:31.258Z,100503.94
2023-10-29T10:29:00.776Z,100501.25
2023-10-29T10:31:30.315Z,100497.25
2023-10-29T10:34:12.457Z,100500.22
2023-10-29T10:36:42.984Z,100487.91
2023-10-29T10:39:12.221Z,100492.44
2023-10-29T10:41:43.362Z,100489.75
2023-10-29T10:44:13.140Z,100476.28
2023-10-29T10:46:47.606Z,100474.44
2023-10-29T10:49:16.700Z,100459.16
2023-10-29T10:51:48.612Z,100459.16
2023-10-29T10:54:19.946Z,100452.81
2023-10-29T10:56:49.157Z,100441.75
2023-10-29T10:59:17.596Z,100441.75
2023-10-29T11:01:45.994Z,100428.28
2023-10-29T11:04:14.471Z,100418.53
2023-10-29T11:06:43.956Z,100424.63
2023-10-29T11:09:14.599Z,100413.88
2023-10-29T11:11:48.159Z,100414.56
2023-10-29T11:14:17.334Z,100412.88
2023-10-29T11:16:52.611Z,100399.00
2023-10-29T11:19:43.729Z,100403.53
2023-10-29T11:22:19.422Z,100395.31
2023-10-29T11:25:29.584Z,100392.47
2023-10-29T11:27:57.516Z,100389.09
2023-10-29T11:30:28.751Z,100390.50
2023-10-29T11:33:19.955Z,100336.56
2023-10-29T11:35:48.465Z,100376.34
2023-10-29T11:38:40.355Z,100378.03
2023-10-29T11:41:34.882Z,100373.38
2023-10-29T11:44:24.278Z,100375.78
2023-10-29T11:47:06.068Z,100372.81
2023-10-29T11:50:14.464Z,100355.78
2023-10-29T11:52:45.753Z,100364.72
2023-10-29T11:55:14.383Z,100355.91
2023-10-29T11:57:47.484Z,100355.91
2023-10-29T12:00:16.669Z,100356.94
2023-10-29T12:02:47.582Z,100335.81
2023-10-29T12:05:17.454Z,100343.06
2023-10-29T12:07:45.748Z,100337.25
2023-10-29T12:10:13.691Z,100332.72
2023-10-29T12:12:42.743Z,100332.72
2023-10-29T12:15:17.799Z,100334.28
2023-10-29T12:17:47.220Z,100318.84
2023-10-29T12:20:23.320Z,100329.88
2023-10-29T12:22:56.047Z,100310.38
2023-10-29T12:25:24.794Z,100323.63
2023-10-29T12:27:53.370Z,100323.34
2023-10-29T12:30:42.711Z,100321.66
2023-10-29T12:33:21.666Z,100321.34
2023-10-29T12:35:51.567Z,100332.13
2023-10-29T12:38:20.631Z,100316.97
2023-10-29T12:41:05.937Z,100317.53
2023-10-29T12:43:37.485Z,100282.31
2023-10-29T12:46:08.309Z,100296.44
2023-10-29T12:48:37.649Z,100302.50
2023-10-29T12:51:05.937Z,100297.44
2023-10-29T12:53:34.176Z,100298.72
2023-10-29T12:56:03.141Z,100297.00
2023-10-29T12:58:31.656Z,100293.50
2023-10-29T13:01:01.129Z,100294.31
2023-10-29T13:03:31.361Z,100288.66
2023-10-29T13:05:59.796Z,100279.19
2023-10-29T13:08:27.807Z,100285.69
2023-10-29T13:10:56.678Z,100280.44
2023-10-29T13:13:25.376Z,100274.91
2023-10-29T13:15:53.877Z,100266.72
2023-10-29T13:18:21.923Z,100266.72
2023-10-29T13:20:51.399Z,100253.38
2023-10-29T13:23:19.323Z,100256.06
2023-10-29T13:25:47.320Z,100246.00
2023-10-29T13:28:15.422Z,100251.09
2023-10-29T13:30:43.689Z,100250.97
2023-10-29T13:33:11.736Z,100255.34
2023-10-29T13:35:41.124Z,100244.56
2023-10-29T13:38:10.522Z,100234.81
2023-10-29T13:40:39.538Z,100225.72
2023-10-29T13:43:07.620Z,100215.97
2023-10-29T13:45:35.547Z,100224.19
2023-10-29T13:48:05.624Z,100217.13
2023-10-29T13:50:33.730Z,100218.81
2023-10-29T13:53:01.753Z,100210.88
2023-10-29T13:55:31.263Z,100211.00
2023-10-29T13:58:00.150Z,100212.03
2023-10-29T14:00:28.304Z,100211.19
2023-10-29T14:02:58.281Z,100211.19
2023-10-29T14:05:26.701Z,100208.66
2023-10-29T14:07:55.445Z,100206.38
2023-10-29T14:10:23.666Z,100204.13
2023-10-29T14:12:53.104Z,100213.34
2023-10-29T14:15:21.077Z,100203.72
2023-10-29T14:17:49.062Z,100197.50
2023-10-29T14:20:17.124Z,100192.13
2023-10-29T14:22:47.041Z,100196.63
2023-10-29T14:25:15.114Z,100199.31
2023-10-29T14:27:42.979Z,100194.69
2023-10-29T14:30:13.480Z,100193.53
2023-10-29T14:32:41.736Z,100199.91
2023-10-29T14:35:09.972Z,100184.34
2023-10-29T14:37:38.154Z,100190.00
2023-10-29T14:40:08.240Z,100195.22
2023-10-29T14:42:36.158Z,100190.53
2023-10-29T14:45:04.724Z,100178.94
2023-10-29T14:47:33.990Z,100173.84
2023-10-29T14:50:01.934Z,100180.06
2023-10-29T14:52:29.819Z,100177.69
2023-10-29T14:54:58.008Z,100183.75
2023-10-29T14:57:29.955Z,100168.75
2023-10-29T14:59:58.654Z,100176.66
2023-10-29T15:02:26.684Z,100175.00
2023-10-29T15:04:56.899Z,100187.44
2023-10-29T15:07:25.116Z,100178.81
2023-10-29T15:09:53.119Z,100168.06
2023-10-29T15:12:21.150Z,100166.34
2023-10-29T15:14:49.635Z,100158.56
2023-10-29T15:17:19.232Z,100156.34
2023-10-29T15:19:52.630Z,100160.41
2023-10-29T15:22:22.386Z,100162.56
2023-10-29T15:24:50.706Z,100166.25
2023-10-29T15:27:19.145Z,100161.72
2023-10-29T15:29:48.247Z,100169.63
2023-10-29T15:32:16.227Z,100164.56
2023-10-29T15:34:44.425Z,100162.69
2023-10-29T15:37:13.051Z,100162.16
2023-10-29T15:39:44.443Z,100166.09
2023-10-29T15:42:12.485Z,100162.56
2023-10-29T15:44:40.413Z,100159.72
2023-10-29T15:47:08.375Z,100158.03
2023-10-29T15:49:36.240Z,100156.16
2023-10-29T15:52:05.607Z,100148.09
2023-10-29T15:54:34.186Z,100144.59
2023-10-29T15:57:03.487Z,100145.41
2023-10-29T15:59:31.497Z,100139.34
2023-10-29T16:01:59.410Z,100139.34
2023-10-29T16:04:27.542Z,100132.28
2023-10-29T16:06:55.726Z,100135.09
2023-10-29T16:09:23.924Z,100114.59
2023-10-29T16:11:52.198Z,100111.91
2023-10-29T16:14:21.505Z,100111.91
2023-10-29T16:16:49.596Z,100103.00
2023-10-29T16:19:17.524Z,100103.97
2023-10-29T16:21:46.752Z,100092.53
2023-10-29T16:24:14.885Z,100093.50
2023-10-29T16:26:43.022Z,100085.59
2023-10-29T16:29:13.066Z,100083.19
2023-10-29T16:31:42.422Z,100087.72
2023-10-29T16:34:10.424Z,100085.19
2023-10-29T16:36:38.563Z,100074.56
2023-10-29T16:39:06.807Z,100066.09
2023-10-29T16:41:34.887Z,100069.34
2023-10-29T16:44:03.937Z,100062.13
2023-10-29T16:46:32.991Z,100055.06
2023-10-29T16:49:03.339Z,100054.19
2023-10-29T16:51:31.804Z,100053.38
2023-10-29T16:53:59.910Z,100055.06
2023-10-29T16:56:27.906Z,100055.06
2023-10-29T16:58:55.908Z,100047.00
2023-10-29T17:01:23.940Z,100042.63
2023-10-29T17:03:53.552Z,100046.28
2023-10-29T17:06:23.092Z,100047.16
2023-10-29T17:08:51.668Z,100032.84
2023-10-29T17:11:19.599Z,100029.31
2023-10-29T17:13:47.568Z,100031.16
2023-10-29T17:16:15.523Z,100028.72
2023-10-29T17:18:43.629Z,100032.28
2023-10-29T17:21:15.491Z,100026.03
2023-10-29T17:23:45.457Z,100018.84
2023-10-29T17:26:16.640Z,100016.16
2023-10-29T17:28:44.695Z,100018.97
2023-10-29T17:31:14.048Z,100017.97
2023-10-29T17:33:42.602Z,100019.81
2023-10-29T17:36:11.560Z,100018.97
2023-10-29T17:38:39.861Z,100018.28
2023-10-29T17:41:17.295Z,100021.78
2023-10-29T17:43:46.458Z,100019.44
2023-10-29T17:46:14.991Z,100018.41
2023-10-29T17:48:43.033Z,100021.09
2023-10-29T17:51:11.069Z,100020.25
2023-10-29T17:53:41.481Z,100010.34
2023-10-29T17:56:10.121Z,100011.50
2023-10-29T17:58:39.729Z,100013.19
2023-10-29T18:01:07.917Z,100009.41
2023-10-29T18:03:35.959Z,100018.56
2023-10-29T18:06:15.535Z,100010.34
2023-10-29T18:08:44.502Z,100011.19
2023-10-29T18:11:13.969Z,100013.19
2023-10-29T18:13:43.747Z,100012.91
2023-10-29T18:16:11.848Z,100007.66
2023-10-29T18:18:39.934Z,100005.81
2023-10-29T18:21:07.925Z,100005.81
2023-10-29T18:23:35.908Z,99995.81
2023-10-29T18:26:04.213Z,100003.13
2023-10-29T18:28:32.714Z,100005.13
2023-10-29T18:31:08.100Z,99977.06
2023-10-29T18:33:36.350Z,100006.97
2023-10-29T18:36:11.737Z,100006.00
2023-10-29T18:38:39.916Z,99999.75
2023-10-29T18:41:13.739Z,100005.81
2023-10-29T18:43:41.738Z,99967.44
2023-10-29T18:46:12.153Z,99996.22
2023-10-29T18:48:40.219Z,99993.13
2023-10-29T18:51:08.343Z,99994.66
2023-10-29T18:53:36.350Z,99993.81
2023-10-29T18:56:04.604Z,99988.44
2023-10-29T18:58:32.612Z,99987.75
2023-10-29T19:01:09.325Z,99983.22
2023-10-29T19:03:39.923Z,99980.66
2023-10-29T19:06:09.046Z,99982.53
2023-10-29T19:08:38.024Z,99975.91
2023-10-29T19:11:06.683Z,99980.97
2023-10-29T19:13:34.890Z,99982.66
2023-10-29T19:16:05.020Z,99970.09
2023-10-29T19:18:33.967Z,99970.94
2023-10-29T19:21:03.397Z,99960.19
2023-10-29T19:23:32.790Z,99963.84
2023-10-29T19:26:03.297Z,99956.66
2023-10-29T19:28:31.325Z,99954.94
2023-10-29T19:31:16.262Z,99954.81
2023-10-29T19:33:47.445Z,99945.88
2023-10-29T19:36:17.117Z,99932.94
2023-10-29T19:38:45.420Z,99952.25
2023-10-29T19:41:13.344Z,99948.03
2023-10-29T19:43:41.396Z,99943.66
2023-10-29T19:46:09.318Z,99941.78
2023-10-29T19:48:38.052Z,99946.34
2023-10-29T19:51:07.766Z,99936.56
2023-10-29T19:53:38.075Z,99942.53
2023-10-29T19:56:07.924Z,99933.09
2023-10-29T19:58:36.363Z,99937.22
2023-10-29T20:01:05.669Z,99925.09
2023-10-29T20:03:34.258Z,99928.19
2023-10-29T20:06:08.207Z,99934.03
2023-10-29T20:08:38.401Z,99916.25
2023-10-29T20:11:10.210Z,99927.41
2023-10-29T20:13:38.573Z,99929.56
2023-10-29T20:16:07.142Z,99924.31
2023-10-29T20:18:36.038Z,99926.31
2023-10-29T20:21:04.601Z,99920.06
2023-10-29T20:23:32.539Z,99916.69
2023-10-29T20:26:04.333Z,99919.38
2023-10-29T20:28:32.630Z,99910.47
2023-10-29T20:31:00.555Z,99906.94
2023-10-29T20:33:28.604Z,99909.50
2023-10-29T20:35:56.758Z,99905.97
2023-10-29T20:38:24.867Z,99901.72
2023-10-29T20:40:52.773Z,99896.19
2023-10-29T20:43:22.141Z,99895.22
2023-10-29T20:45:52.665Z,99898.88
2023-10-29T20:48:20.848Z,99891.69
2023-10-29T20:50:52.652Z,99890.69
2023-10-29T20:53:20.817Z,99892.53
2023-10-29T20:55:49.148Z,99888.81
2023-10-29T20:58:17.082Z,99890.53
2023-10-29T21:00:50.982Z,99881.50
2023-10-29T21:03:19.584Z,99877.09
2023-10-29T21:05:47.792Z,99865.50
2023-10-29T21:08:15.972Z,99867.78
2023-10-29T21:10:43.943Z,99870.59
2023-10-29T21:13:11.956Z,99868.59
2023-10-29T21:15:41.544Z,99865.09
2023-10-29T21:18:10.990Z,99863.09
2023-10-29T21:20:38.902Z,99861.25
2023-10-29T21:23:08.034Z,99867.44
2023-10-29T21:25:38.648Z,99862.94
2023-10-29T21:28:06.913Z,99864.63
2023-10-29T21:30:37.640Z,99866.16
2023-10-29T21:33:05.886Z,99862.47
2023-10-29T21:35:36.928Z,99857.09
2023-10-29T21:38:04.955Z,99854.41
2023-10-29T21:40:34.456Z,99849.03
2023-10-29T21:43:02.425Z,99847.38
2023-10-29T21:45:30.354Z,99837.47
2023-10-29T21:47:58.374Z,99842.69
2023-10-29T21:50:26.387Z,99853.25
2023-10-29T21:52:55.678Z,99844.22
2023-10-29T21:55:23.546Z,99847.59
2023-10-29T21:57:51.567Z,99840.25
2023-10-29T22:00:19.841Z,99847.16
2023-10-29T22:02:47.887Z,99837.56
2023-10-29T22:05:15.976Z,99835.09
2023-10-29T22:07:43.848Z,99841.84
2023-10-29T22:10:13.247Z,99843.25
2023-10-29T22:12:41.154Z,99825.44
2023-10-29T22:15:09.861Z,99833.66
2023-10-29T22:17:37.783Z,99826.75
2023-10-29T22:20:06.765Z,99823.91
2023-10-29T22:22:34.668Z,99818.41
2023-10-29T22:25:02.720Z,99820.06
2023-10-29T22:27:32.190Z,99830.50
2023-10-29T22:30:00.255Z,99822.31
2023-10-29T22:32:28.844Z,99820.44
2023-10-29T22:34:56.988Z,99822.38
2023-10-29T22:37:24.852Z,99828.47
2023-10-29T22:39:52.840Z,99826.22
2023-10-29T22:42:20.772Z,99832.13
2023-10-29T22:44:50.136Z,99825.63
2023-10-29T22:47:18.162Z,99817.72
2023-10-29T22:49:46.099Z,99827.44
2023-10-29T22:52:15.139Z,99826.47
2023-10-29T22:54:43.070Z,99818.94
2023-10-29T22:57:11.149Z,99818.47
2023-10-29T22:59:39.045Z,99816.66
2023-10-29T23:02:08.444Z,99810.25
2023-10-29T23:04:36.451Z,99799.66
2023-10-29T23:07:05.795Z,99794.41
2023-10-29T23:09:34.794Z,99798.44
2023-10-29T23:12:02.885Z,99789.00
2023-10-29T23:14:31.184Z,99792.00
2023-10-29T23:16:59.157Z,99789.44
2023-10-29T23:19:28.450Z,99785.91
2023-10-29T23:21:56.416Z,99787.91
2023-10-29T23:24:24.371Z,99787.38
2023-10-29T23:26:52.257Z,99785.84
2023-10-29T23:29:20.720Z,99779.91
2023-10-29T23:31:48.815Z,99780.91
2023-10-29T23:34:16.902Z,99775.69
2023-10-29T23:36:46.119Z,99768.31
2023-10-29T23:39:14.162Z,99774.00
2023-10-29T23:41:42.209Z,99770.44
2023-10-29T23:44:10.129Z,99771.59
2023-10-29T23:46:38.190Z,99769.94
2023-10-29T23:49:08.017Z,99767.38
2023-10-29T23:51:36.034Z,99762.19
2023-10-29T23:54:05.713Z,99752.41
2023-10-29T23:56:33.794Z,99755.09
2023-10-29T23:59:01.731Z,99749.72
